Weather at Mannheim-City Airport

Public forecast

Using degrees Celsius for public forecast. Weather courtesy of forecast.io.

Current aviation weather report (METAR) for Mannheim-City Airport

Retrieved 2020/09/26 16:20 UTC (25 minutes ago):

EDFM 261620Z 24009KT 210V270 9999 FEW026 SCT033 OVC039 12/07 Q0999

Aviation forecast (TAF) for Mannheim-City Airport

Forecast is more than 12 hours old.

Retrieved 2012/03/06 06:30 UTC (9 years ago):

TAF EDFM 060519Z 0606/0621 15004KT 9999 FEW040